createdAt,value
2018-12-12T00:00:38.750Z,65.30
2018-12-12T00:04:44.805Z,65.20
2018-12-12T00:08:48.911Z,65.30
2018-12-12T00:12:53.025Z,65.30
2018-12-12T00:16:57.117Z,65.40
2018-12-12T00:21:01.291Z,65.20
2018-12-12T00:25:06.842Z,65.20
2018-12-12T00:29:10.974Z,65.80
2018-12-12T00:33:15.085Z,66.40
2018-12-12T00:37:19.215Z,65.60
2018-12-12T00:41:23.641Z,65.10
2018-12-12T00:45:27.881Z,66.10
2018-12-12T00:49:31.968Z,66.90
2018-12-12T00:53:36.106Z,66.20
2018-12-12T00:57:40.471Z,65.90
2018-12-12T01:01:44.601Z,66.80
2018-12-12T01:05:48.682Z,66.90
2018-12-12T01:09:52.761Z,66.50
2018-12-12T01:13:56.848Z,67.00
2018-12-12T01:18:00.902Z,67.40
2018-12-12T01:22:05.055Z,66.50
2018-12-12T01:26:09.124Z,66.60
2018-12-12T01:30:13.220Z,66.10
2018-12-12T01:34:17.330Z,66.50
2018-12-12T01:38:21.454Z,66.20
2018-12-12T01:42:25.568Z,65.90
2018-12-12T01:46:29.653Z,65.30
2018-12-12T01:50:33.724Z,65.00
2018-12-12T01:54:37.781Z,65.30
2018-12-12T01:58:41.914Z,65.80
2018-12-12T02:02:45.989Z,65.80
2018-12-12T02:06:50.105Z,65.20
2018-12-12T02:10:54.540Z,64.60
2018-12-12T02:14:58.625Z,64.50
2018-12-12T02:19:02.784Z,64.00
2018-12-12T02:23:06.869Z,64.50
2018-12-12T02:27:10.955Z,64.50
2018-12-12T02:31:15.009Z,64.30
2018-12-12T02:35:19.127Z,64.20
2018-12-12T02:39:23.296Z,64.00
2018-12-12T02:43:27.381Z,64.00
2018-12-12T02:47:32.671Z,64.10
2018-12-12T02:51:36.730Z,63.30
2018-12-12T02:55:40.807Z,63.90
2018-12-12T02:59:44.881Z,64.70
2018-12-12T03:03:49.054Z,64.90
2018-12-12T03:07:53.273Z,65.90
2018-12-12T03:11:57.384Z,66.50
2018-12-12T03:16:01.524Z,67.00
2018-12-12T03:20:06.690Z,67.20
2018-12-12T03:24:10.796Z,66.50
2018-12-12T03:28:15.016Z,66.50
2018-12-12T03:32:19.133Z,65.50
2018-12-12T03:36:23.344Z,66.40
2018-12-12T03:40:27.869Z,65.90
2018-12-12T03:44:31.941Z,65.80
2018-12-12T03:48:36.022Z,65.80
2018-12-12T03:52:40.163Z,65.60
2018-12-12T03:56:44.231Z,65.00
2018-12-12T04:00:48.414Z,64.30
2018-12-12T04:04:52.494Z,64.90
2018-12-12T04:08:56.639Z,64.40
2018-12-12T04:13:00.780Z,63.50
2018-12-12T04:17:04.865Z,64.60
2018-12-12T04:21:08.925Z,64.50
2018-12-12T04:25:13.476Z,64.10
2018-12-12T04:29:17.572Z,64.30
2018-12-12T04:33:21.643Z,64.00
2018-12-12T04:37:25.718Z,63.70
2018-12-12T04:41:29.860Z,63.70
2018-12-12T04:45:34.002Z,64.20
2018-12-12T04:49:38.155Z,63.90
2018-12-12T04:53:42.228Z,64.80
2018-12-12T04:57:46.333Z,65.10
2018-12-12T05:01:50.758Z,65.60
2018-12-12T05:05:54.904Z,65.30
2018-12-12T05:09:59.000Z,66.10
2018-12-12T05:14:03.079Z,66.10
2018-12-12T05:18:07.130Z,66.50
2018-12-12T05:22:11.210Z,66.90
2018-12-12T05:26:15.283Z,66.40
2018-12-12T05:30:19.489Z,66.50
2018-12-12T05:34:23.547Z,66.50
2018-12-12T05:38:27.629Z,66.60
2018-12-12T05:42:32.828Z,66.40
2018-12-12T05:46:41.740Z,67.20
2018-12-12T05:50:43.069Z,66.00
2018-12-12T05:54:47.125Z,65.30
2018-12-12T05:58:51.232Z,66.30
2018-12-12T06:02:55.349Z,65.80
2018-12-12T06:06:59.477Z,65.40
2018-12-12T06:11:03.615Z,66.20
2018-12-12T06:15:08.312Z,66.60
2018-12-12T06:19:12.428Z,66.20
2018-12-12T06:23:16.582Z,66.20
2018-12-12T06:27:21.735Z,66.80
2018-12-12T06:31:25.789Z,66.70
2018-12-12T06:35:29.875Z,66.20
2018-12-12T06:39:34.004Z,68.10
2018-12-12T06:43:38.074Z,67.70
2018-12-12T06:47:42.152Z,66.20
2018-12-12T06:51:46.226Z,66.50
2018-12-12T06:55:50.313Z,67.10
2018-12-12T06:59:54.386Z,67.40
2018-12-12T07:03:58.466Z,66.30
2018-12-12T07:08:02.570Z,65.00
2018-12-12T07:12:06.661Z,65.00
2018-12-12T07:16:10.737Z,65.60
2018-12-12T07:20:14.913Z,65.30
2018-12-12T07:24:18.986Z,70.70
2018-12-12T07:28:23.128Z,67.80
2018-12-12T07:32:27.274Z,66.80
2018-12-12T07:36:31.346Z,69.10
2018-12-12T07:40:35.454Z,69.60
2018-12-12T07:44:41.496Z,69.80
2018-12-12T07:48:48.482Z,66.30
2018-12-12T07:52:58.145Z,66.60
2018-12-12T07:57:02.234Z,67.00
2018-12-12T08:01:06.398Z,70.90
2018-12-12T08:05:10.613Z,69.20
2018-12-12T08:09:14.729Z,69.20
2018-12-12T08:13:18.828Z,67.70
2018-12-12T08:17:22.971Z,66.50
2018-12-12T08:21:27.098Z,70.50
2018-12-12T08:25:31.473Z,70.30
2018-12-12T08:29:35.548Z,71.40
2018-12-12T08:33:39.623Z,68.80
2018-12-12T08:37:43.699Z,71.50
2018-12-12T08:41:47.773Z,71.00
2018-12-12T08:45:51.918Z,71.00
2018-12-12T08:49:55.990Z,71.80
2018-12-12T08:54:00.078Z,70.00
2018-12-12T08:58:04.297Z,70.40
2018-12-12T09:02:08.460Z,68.80
2018-12-12T09:06:12.620Z,67.40
2018-12-12T09:10:16.773Z,68.90
2018-12-12T09:14:22.838Z,69.90
2018-12-12T09:18:28.318Z,69.60
2018-12-12T09:22:32.688Z,70.90
2018-12-12T09:26:36.834Z,71.00
2018-12-12T09:30:40.971Z,72.30
2018-12-12T09:34:47.016Z,71.60
2018-12-12T09:38:51.160Z,70.40
2018-12-12T09:42:55.247Z,67.80
2018-12-12T09:46:59.390Z,71.30
2018-12-12T09:51:07.264Z,73.40
2018-12-12T09:55:11.629Z,66.80
2018-12-12T09:59:15.705Z,67.50
2018-12-12T10:03:19.794Z,68.60
2018-12-12T10:07:23.869Z,69.10
2018-12-12T10:11:27.939Z,72.50
2018-12-12T10:15:32.569Z,70.60
2018-12-12T10:19:36.682Z,69.40
2018-12-12T10:23:40.765Z,68.40
2018-12-12T10:27:44.832Z,69.30
2018-12-12T10:31:48.954Z,69.30
2018-12-12T10:35:53.019Z,69.20
2018-12-12T10:39:57.190Z,67.80
2018-12-12T10:44:01.318Z,68.20
2018-12-12T10:48:05.435Z,70.20
2018-12-12T10:52:09.595Z,70.50
2018-12-12T10:56:13.686Z,69.90
2018-12-12T11:00:18.846Z,71.50
2018-12-12T11:04:22.957Z,65.50
2018-12-12T11:08:27.064Z,69.50
2018-12-12T11:12:31.121Z,69.30
2018-12-12T11:16:35.216Z,67.90
2018-12-12T11:20:39.316Z,63.40
2018-12-12T11:24:43.377Z,64.10
2018-12-12T11:28:47.489Z,66.40
2018-12-12T11:32:51.612Z,63.40
2018-12-12T11:36:55.737Z,60.30
2018-12-12T11:40:59.961Z,57.50
2018-12-12T11:45:04.795Z,44.70
2018-12-12T11:49:08.914Z,49.40
2018-12-12T11:53:13.041Z,58.30
2018-12-12T11:57:17.492Z,56.60
2018-12-12T12:01:21.572Z,58.10
2018-12-12T12:05:25.709Z,66.10
2018-12-12T12:09:29.850Z,63.10
2018-12-12T12:13:33.921Z,64.10
2018-12-12T12:17:38.009Z,64.20
2018-12-12T12:21:42.104Z,66.10
2018-12-12T12:25:46.186Z,64.90
2018-12-12T12:29:50.265Z,61.90
2018-12-12T12:33:54.508Z,60.00
2018-12-12T12:37:58.594Z,63.70
2018-12-12T12:42:02.665Z,67.10
2018-12-12T12:46:06.828Z,65.40
2018-12-12T12:50:10.926Z,61.40
2018-12-12T12:54:14.990Z,63.20
2018-12-12T12:58:19.060Z,64.90
2018-12-12T13:02:23.170Z,55.90
2018-12-12T13:06:27.245Z,62.70
2018-12-12T13:10:31.750Z,67.20
2018-12-12T13:14:35.798Z,60.90
2018-12-12T13:18:39.885Z,57.90
2018-12-12T13:22:43.957Z,57.10
2018-12-12T13:26:53.400Z,59.10
2018-12-12T13:30:54.133Z,63.70
2018-12-12T13:34:58.470Z,62.10
2018-12-12T13:43:19.647Z,62.90
2018-12-12T13:47:23.741Z,59.50
2018-12-12T13:51:28.189Z,65.30
2018-12-12T13:55:32.297Z,60.60
2018-12-12T13:59:36.402Z,63.60
2018-12-12T14:03:40.482Z,58.70
2018-12-12T14:07:44.559Z,60.00
2018-12-12T14:11:48.706Z,60.10
2018-12-12T14:15:52.793Z,65.00
2018-12-12T14:19:56.913Z,64.20
2018-12-12T14:24:00.999Z,65.70
2018-12-12T14:28:05.133Z,65.30
2018-12-12T14:32:09.290Z,61.00
2018-12-12T14:36:13.413Z,63.90
2018-12-12T14:40:17.505Z,67.00
2018-12-12T14:44:21.580Z,63.10
2018-12-12T14:48:30.295Z,61.90
2018-12-12T14:52:31.843Z,62.50
2018-12-12T14:56:35.997Z,66.60
2018-12-12T15:00:40.189Z,66.10
2018-12-12T15:04:44.254Z,70.00
2018-12-12T15:08:48.349Z,65.50
2018-12-12T15:12:52.524Z,67.90
2018-12-12T15:16:57.697Z,67.30
2018-12-12T15:21:01.790Z,69.30
2018-12-12T15:25:06.646Z,63.50
2018-12-12T15:29:10.733Z,66.40
2018-12-12T15:33:14.898Z,64.50
2018-12-12T15:37:18.984Z,63.50
2018-12-12T15:41:23.062Z,64.00
2018-12-12T15:45:27.238Z,64.60
2018-12-12T15:49:31.327Z,63.10
2018-12-12T15:53:35.466Z,66.60
2018-12-12T15:57:39.602Z,64.60
2018-12-12T16:01:43.762Z,63.80
2018-12-12T16:05:48.426Z,66.90
2018-12-12T16:09:52.502Z,68.70
2018-12-12T16:13:56.589Z,69.30
2018-12-12T16:18:00.709Z,71.00
2018-12-12T16:22:04.788Z,71.20
2018-12-12T16:26:08.871Z,67.60
2018-12-12T16:30:12.957Z,73.30
2018-12-12T16:34:17.029Z,69.30
2018-12-12T16:38:21.142Z,70.10
2018-12-12T16:42:26.081Z,66.50
2018-12-12T16:46:32.156Z,67.60
2018-12-12T16:50:36.253Z,70.60
2018-12-12T16:54:40.625Z,71.30
2018-12-12T16:58:44.759Z,70.00
2018-12-12T17:02:48.860Z,69.70
2018-12-12T17:06:52.929Z,73.30
2018-12-12T17:10:57.057Z,70.60
2018-12-12T17:15:02.144Z,68.20
2018-12-12T17:19:06.228Z,69.20
2018-12-12T17:23:10.332Z,70.10
2018-12-12T17:40:50.278Z,70.90
2018-12-12T17:49:09.002Z,70.10
2018-12-12T17:53:47.655Z,68.40
2018-12-12T18:02:48.806Z,68.30
2018-12-12T18:11:49.889Z,69.10
2018-12-12T18:20:47.175Z,71.20
2018-12-12T18:42:48.322Z,63.20
2018-12-12T18:51:47.617Z,66.10
2018-12-12T18:55:53.687Z,61.10
2018-12-12T18:59:57.750Z,60.00
2018-12-12T19:08:49.175Z,64.10
2018-12-12T19:12:53.254Z,58.80
2018-12-12T19:21:47.742Z,63.50
2018-12-12T19:30:48.358Z,68.00
2018-12-12T19:34:52.463Z,65.00
2018-12-12T19:38:57.642Z,68.60
2018-12-12T19:47:47.213Z,66.20
2018-12-12T19:51:51.304Z,65.10
2018-12-12T20:00:48.798Z,68.10
2018-12-12T20:04:58.296Z,66.80
2018-12-12T20:09:02.367Z,66.80
2018-12-12T20:13:07.683Z,66.20
2018-12-12T20:17:11.780Z,69.00
2018-12-12T20:21:15.882Z,68.00
2018-12-12T20:25:19.987Z,64.10
2018-12-12T20:29:24.072Z,64.50
2018-12-12T20:33:28.169Z,69.70
2018-12-12T20:37:32.285Z,62.80
2018-12-12T20:41:36.375Z,64.50
2018-12-12T20:45:40.476Z,66.70
2018-12-12T20:49:44.554Z,64.00
2018-12-12T20:53:48.712Z,66.40
2018-12-12T20:57:52.825Z,67.90
2018-12-12T21:01:58.419Z,65.50
2018-12-12T21:06:02.453Z,65.80
2018-12-12T21:10:07.475Z,68.00
2018-12-12T21:14:11.542Z,65.80
2018-12-12T21:18:15.629Z,66.90
2018-12-12T21:22:19.738Z,68.10
2018-12-12T21:26:25.078Z,68.10
2018-12-12T21:30:29.162Z,69.30
2018-12-12T21:34:33.249Z,68.10
2018-12-12T21:38:37.353Z,69.60
2018-12-12T21:47:47.550Z,68.40
2018-12-12T22:00:50.202Z,64.70
2018-12-12T22:09:14.427Z,67.20
2018-12-12T22:22:03.522Z,71.80
2018-12-12T22:30:49.302Z,71.60
2018-12-12T22:39:47.939Z,71.90
2018-12-12T22:48:47.600Z,69.50
2018-12-12T22:52:51.675Z,64.60
2018-12-12T23:19:47.410Z,67.70
2018-12-12T23:28:46.836Z,69.00
2018-12-12T23:32:50.893Z,68.40
2018-12-12T23:36:54.997Z,67.60
2018-12-12T23:40:59.090Z,68.50
2018-12-12T23:45:03.200Z,68.50
2018-12-12T23:49:08.248Z,67.90
2018-12-12T23:53:12.317Z,70.10
2018-12-12T23:57:16.399Z,71.00
